sensor_id;sensor_type;location;lat;lon;timestamp;temperature;humidity
32506;DHT22;18955;51.224;8.482;2023-07-30T00:01:55;17.00;83.50
32506;DHT22;18955;51.224;8.482;2023-07-30T00:04:22;17.00;83.60
32506;DHT22;18955;51.224;8.482;2023-07-30T00:06:48;17.00;83.50
32506;DHT22;18955;51.224;8.482;2023-07-30T00:09:14;16.90;83.70
32506;DHT22;18955;51.224;8.482;2023-07-30T00:11:40;16.90;83.80
32506;DHT22;18955;51.224;8.482;2023-07-30T00:14:06;16.90;83.50
32506;DHT22;18955;51.224;8.482;2023-07-30T00:16:33;16.90;83.70
32506;DHT22;18955;51.224;8.482;2023-07-30T00:18:59;16.90;83.60
32506;DHT22;18955;51.224;8.482;2023-07-30T00:21:25;16.90;83.70
32506;DHT22;18955;51.224;8.482;2023-07-30T00:23:51;16.80;83.80
32506;DHT22;18955;51.224;8.482;2023-07-30T00:26:17;16.80;83.90
32506;DHT22;18955;51.224;8.482;2023-07-30T00:28:43;16.80;83.80
32506;DHT22;18955;51.224;8.482;2023-07-30T00:31:10;16.80;84.10
32506;DHT22;18955;51.224;8.482;2023-07-30T00:33:36;16.80;84.00
32506;DHT22;18955;51.224;8.482;2023-07-30T00:36:03;16.80;83.90
32506;DHT22;18955;51.224;8.482;2023-07-30T00:38:29;16.80;84.00
32506;DHT22;18955;51.224;8.482;2023-07-30T00:40:55;16.80;84.30
32506;DHT22;18955;51.224;8.482;2023-07-30T00:43:22;16.80;84.60
32506;DHT22;18955;51.224;8.482;2023-07-30T00:45:48;16.70;84.20
32506;DHT22;18955;51.224;8.482;2023-07-30T00:48:15;16.70;84.20
32506;DHT22;18955;51.224;8.482;2023-07-30T00:50:41;16.70;84.40
32506;DHT22;18955;51.224;8.482;2023-07-30T00:53:09;16.70;83.90
32506;DHT22;18955;51.224;8.482;2023-07-30T00:55:37;16.70;84.00
32506;DHT22;18955;51.224;8.482;2023-07-30T00:58:04;16.70;84.10
32506;DHT22;18955;51.224;8.482;2023-07-30T01:00:30;16.70;84.00
32506;DHT22;18955;51.224;8.482;2023-07-30T01:02:58;16.70;84.40
32506;DHT22;18955;51.224;8.482;2023-07-30T01:05:25;16.70;84.10
32506;DHT22;18955;51.224;8.482;2023-07-30T01:07:52;16.70;84.20
32506;DHT22;18955;51.224;8.482;2023-07-30T01:10:18;16.60;84.10
32506;DHT22;18955;51.224;8.482;2023-07-30T01:12:45;16.60;84.20
32506;DHT22;18955;51.224;8.482;2023-07-30T01:15:12;16.60;84.10
32506;DHT22;18955;51.224;8.482;2023-07-30T01:17:39;16.60;84.20
32506;DHT22;18955;51.224;8.482;2023-07-30T01:20:06;16.60;84.10
32506;DHT22;18955;51.224;8.482;2023-07-30T01:22:32;16.60;84.20
32506;DHT22;18955;51.224;8.482;2023-07-30T01:24:58;16.60;84.40
32506;DHT22;18955;51.224;8.482;2023-07-30T01:27:36;16.60;84.00
32506;DHT22;18955;51.224;8.482;2023-07-30T01:30:05;16.50;84.30
32506;DHT22;18955;51.224;8.482;2023-07-30T01:32:32;16.50;84.10
32506;DHT22;18955;51.224;8.482;2023-07-30T01:35:01;16.60;84.50
32506;DHT22;18955;51.224;8.482;2023-07-30T01:37:29;16.50;84.00
32506;DHT22;18955;51.224;8.482;2023-07-30T01:39:56;16.60;84.40
32506;DHT22;18955;51.224;8.482;2023-07-30T01:42:28;16.50;84.10
32506;DHT22;18955;51.224;8.482;2023-07-30T01:44:55;16.50;84.50
32506;DHT22;18955;51.224;8.482;2023-07-30T01:47:21;16.50;84.60
32506;DHT22;18955;51.224;8.482;2023-07-30T01:49:47;16.50;84.30
32506;DHT22;18955;51.224;8.482;2023-07-30T01:52:13;16.50;84.10
32506;DHT22;18955;51.224;8.482;2023-07-30T01:54:40;16.50;84.40
32506;DHT22;18955;51.224;8.482;2023-07-30T01:57:06;16.40;84.30
32506;DHT22;18955;51.224;8.482;2023-07-30T01:59:32;16.50;84.10
32506;DHT22;18955;51.224;8.482;2023-07-30T02:01:58;16.40;84.30
32506;DHT22;18955;51.224;8.482;2023-07-30T02:04:24;16.40;84.10
32506;DHT22;18955;51.224;8.482;2023-07-30T02:06:51;16.40;84.00
32506;DHT22;18955;51.224;8.482;2023-07-30T02:09:17;16.40;84.10
32506;DHT22;18955;51.224;8.482;2023-07-30T02:11:43;16.40;84.20
32506;DHT22;18955;51.224;8.482;2023-07-30T02:14:09;16.40;84.10
32506;DHT22;18955;51.224;8.482;2023-07-30T02:16:36;16.40;83.90
32506;DHT22;18955;51.224;8.482;2023-07-30T02:19:03;16.40;84.10
32506;DHT22;18955;51.224;8.482;2023-07-30T02:21:29;16.30;84.10
32506;DHT22;18955;51.224;8.482;2023-07-30T02:23:59;16.30;84.00
32506;DHT22;18955;51.224;8.482;2023-07-30T02:26:25;16.30;84.00
32506;DHT22;18955;51.224;8.482;2023-07-30T02:28:52;16.30;84.10
32506;DHT22;18955;51.224;8.482;2023-07-30T02:31:18;16.30;84.30
32506;DHT22;18955;51.224;8.482;2023-07-30T02:33:44;16.30;84.00
32506;DHT22;18955;51.224;8.482;2023-07-30T02:36:10;16.30;83.90
32506;DHT22;18955;51.224;8.482;2023-07-30T02:38:37;16.30;83.90
32506;DHT22;18955;51.224;8.482;2023-07-30T02:41:03;16.30;84.10
32506;DHT22;18955;51.224;8.482;2023-07-30T02:43:29;16.20;84.00
32506;DHT22;18955;51.224;8.482;2023-07-30T02:45:55;16.20;84.00
32506;DHT22;18955;51.224;8.482;2023-07-30T02:48:21;16.20;83.80
32506;DHT22;18955;51.224;8.482;2023-07-30T02:50:48;16.20;84.00
32506;DHT22;18955;51.224;8.482;2023-07-30T02:53:14;16.20;83.90
32506;DHT22;18955;51.224;8.482;2023-07-30T02:55:40;16.20;83.80
32506;DHT22;18955;51.224;8.482;2023-07-30T02:58:06;16.20;83.90
32506;DHT22;18955;51.224;8.482;2023-07-30T03:00:32;16.20;83.80
32506;DHT22;18955;51.224;8.482;2023-07-30T03:02:58;16.20;83.70
32506;DHT22;18955;51.224;8.482;2023-07-30T03:05:26;16.10;83.60
32506;DHT22;18955;51.224;8.482;2023-07-30T03:07:53;16.10;83.70
32506;DHT22;18955;51.224;8.482;2023-07-30T03:10:19;16.10;83.70
32506;DHT22;18955;51.224;8.482;2023-07-30T03:12:46;16.10;83.80
32506;DHT22;18955;51.224;8.482;2023-07-30T03:15:12;16.10;83.60
32506;DHT22;18955;51.224;8.482;2023-07-30T03:17:38;16.10;83.50
32506;DHT22;18955;51.224;8.482;2023-07-30T03:20:04;16.10;83.60
32506;DHT22;18955;51.224;8.482;2023-07-30T03:22:31;16.00;83.50
32506;DHT22;18955;51.224;8.482;2023-07-30T03:24:57;16.00;83.40
32506;DHT22;18955;51.224;8.482;2023-07-30T03:27:23;16.00;83.40
32506;DHT22;18955;51.224;8.482;2023-07-30T03:29:49;16.00;83.40
32506;DHT22;18955;51.224;8.482;2023-07-30T03:32:15;16.00;83.40
32506;DHT22;18955;51.224;8.482;2023-07-30T03:34:41;16.00;83.60
32506;DHT22;18955;51.224;8.482;2023-07-30T03:37:08;16.00;83.30
32506;DHT22;18955;51.224;8.482;2023-07-30T03:39:34;16.00;83.40
32506;DHT22;18955;51.224;8.482;2023-07-30T03:42:00;16.00;83.30
32506;DHT22;18955;51.224;8.482;2023-07-30T03:44:27;15.90;83.30
32506;DHT22;18955;51.224;8.482;2023-07-30T03:46:53;15.90;83.30
32506;DHT22;18955;51.224;8.482;2023-07-30T03:49:19;15.90;83.40
32506;DHT22;18955;51.224;8.482;2023-07-30T03:51:45;15.90;83.30
32506;DHT22;18955;51.224;8.482;2023-07-30T03:54:11;15.90;83.50
32506;DHT22;18955;51.224;8.482;2023-07-30T03:56:37;15.90;83.30
32506;DHT22;18955;51.224;8.482;2023-07-30T03:59:03;15.80;83.40
32506;DHT22;18955;51.224;8.482;2023-07-30T04:01:30;15.80;83.20
32506;DHT22;18955;51.224;8.482;2023-07-30T04:03:57;15.80;83.40
32506;DHT22;18955;51.224;8.482;2023-07-30T04:06:23;15.80;83.30
32506;DHT22;18955;51.224;8.482;2023-07-30T04:08:49;15.80;83.50
32506;DHT22;18955;51.224;8.482;2023-07-30T04:11:15;15.80;83.40
32506;DHT22;18955;51.224;8.482;2023-07-30T04:13:42;15.80;83.40
32506;DHT22;18955;51.224;8.482;2023-07-30T04:16:08;15.70;83.30
32506;DHT22;18955;51.224;8.482;2023-07-30T04:18:34;15.70;83.30
32506;DHT22;18955;51.224;8.482;2023-07-30T04:21:00;15.70;83.30
32506;DHT22;18955;51.224;8.482;2023-07-30T04:23:27;15.70;83.20
32506;DHT22;18955;51.224;8.482;2023-07-30T04:25:53;15.70;83.30
32506;DHT22;18955;51.224;8.482;2023-07-30T04:28:20;15.70;83.30
32506;DHT22;18955;51.224;8.482;2023-07-30T04:30:46;15.70;83.30
32506;DHT22;18955;51.224;8.482;2023-07-30T04:33:15;15.60;83.30
32506;DHT22;18955;51.224;8.482;2023-07-30T04:35:42;15.70;83.50
32506;DHT22;18955;51.224;8.482;2023-07-30T04:38:08;15.60;83.30
32506;DHT22;18955;51.224;8.482;2023-07-30T04:40:34;15.60;83.30
32506;DHT22;18955;51.224;8.482;2023-07-30T04:43:01;15.60;83.50
32506;DHT22;18955;51.224;8.482;2023-07-30T04:45:28;15.60;83.60
32506;DHT22;18955;51.224;8.482;2023-07-30T04:47:55;15.60;83.50
32506;DHT22;18955;51.224;8.482;2023-07-30T04:50:21;15.60;83.70
32506;DHT22;18955;51.224;8.482;2023-07-30T04:52:48;15.50;83.50
32506;DHT22;18955;51.224;8.482;2023-07-30T04:55:14;15.50;83.50
32506;DHT22;18955;51.224;8.482;2023-07-30T04:57:40;15.50;83.50
32506;DHT22;18955;51.224;8.482;2023-07-30T05:00:07;15.50;83.50
32506;DHT22;18955;51.224;8.482;2023-07-30T05:02:34;15.50;83.50
32506;DHT22;18955;51.224;8.482;2023-07-30T05:05:00;15.50;83.60
32506;DHT22;18955;51.224;8.482;2023-07-30T05:07:27;15.50;83.70
32506;DHT22;18955;51.224;8.482;2023-07-30T05:09:53;15.50;83.90
32506;DHT22;18955;51.224;8.482;2023-07-30T05:12:19;15.40;83.80
32506;DHT22;18955;51.224;8.482;2023-07-30T05:14:45;15.40;84.10
32506;DHT22;18955;51.224;8.482;2023-07-30T05:17:11;15.40;84.00
32506;DHT22;18955;51.224;8.482;2023-07-30T05:19:37;15.40;83.90
32506;DHT22;18955;51.224;8.482;2023-07-30T05:22:04;15.40;84.00
32506;DHT22;18955;51.224;8.482;2023-07-30T05:24:31;15.40;84.00
32506;DHT22;18955;51.224;8.482;2023-07-30T05:26:57;15.40;83.90
32506;DHT22;18955;51.224;8.482;2023-07-30T05:29:24;15.40;84.00
32506;DHT22;18955;51.224;8.482;2023-07-30T05:31:50;15.40;84.10
32506;DHT22;18955;51.224;8.482;2023-07-30T05:34:16;15.40;84.30
32506;DHT22;18955;51.224;8.482;2023-07-30T05:36:42;15.40;84.10
32506;DHT22;18955;51.224;8.482;2023-07-30T05:39:08;15.40;84.30
32506;DHT22;18955;51.224;8.482;2023-07-30T05:41:34;15.40;84.00
32506;DHT22;18955;51.224;8.482;2023-07-30T05:44:00;15.30;84.10
32506;DHT22;18955;51.224;8.482;2023-07-30T05:46:27;15.40;84.10
32506;DHT22;18955;51.224;8.482;2023-07-30T05:48:53;15.40;84.00
32506;DHT22;18955;51.224;8.482;2023-07-30T05:51:19;15.30;84.10
32506;DHT22;18955;51.224;8.482;2023-07-30T05:53:45;15.30;84.20
32506;DHT22;18955;51.224;8.482;2023-07-30T05:56:11;15.30;84.30
32506;DHT22;18955;51.224;8.482;2023-07-30T05:58:40;15.30;84.30
32506;DHT22;18955;51.224;8.482;2023-07-30T06:01:06;15.30;84.20
32506;DHT22;18955;51.224;8.482;2023-07-30T06:03:33;15.30;84.40
32506;DHT22;18955;51.224;8.482;2023-07-30T06:06:01;15.30;84.60
32506;DHT22;18955;51.224;8.482;2023-07-30T06:08:27;15.30;84.40
32506;DHT22;18955;51.224;8.482;2023-07-30T06:10:59;15.30;84.20
32506;DHT22;18955;51.224;8.482;2023-07-30T06:13:26;15.30;84.80
32506;DHT22;18955;51.224;8.482;2023-07-30T06:15:52;15.30;84.20
32506;DHT22;18955;51.224;8.482;2023-07-30T06:18:18;15.30;84.20
32506;DHT22;18955;51.224;8.482;2023-07-30T06:20:44;15.30;84.30
32506;DHT22;18955;51.224;8.482;2023-07-30T06:23:10;15.30;84.30
32506;DHT22;18955;51.224;8.482;2023-07-30T06:25:36;15.30;84.30
32506;DHT22;18955;51.224;8.482;2023-07-30T06:28:04;15.30;84.70
32506;DHT22;18955;51.224;8.482;2023-07-30T06:30:31;15.30;84.50
32506;DHT22;18955;51.224;8.482;2023-07-30T06:32:58;15.30;84.40
32506;DHT22;18955;51.224;8.482;2023-07-30T06:35:24;15.30;84.40
32506;DHT22;18955;51.224;8.482;2023-07-30T06:37:50;15.30;84.30
32506;DHT22;18955;51.224;8.482;2023-07-30T06:40:16;15.30;84.30
32506;DHT22;18955;51.224;8.482;2023-07-30T06:42:43;15.30;84.40
32506;DHT22;18955;51.224;8.482;2023-07-30T06:45:09;15.30;84.20
32506;DHT22;18955;51.224;8.482;2023-07-30T06:47:35;15.30;84.40
32506;DHT22;18955;51.224;8.482;2023-07-30T06:50:01;15.30;84.20
32506;DHT22;18955;51.224;8.482;2023-07-30T06:52:28;15.40;84.20
32506;DHT22;18955;51.224;8.482;2023-07-30T06:54:55;15.30;84.20
32506;DHT22;18955;51.224;8.482;2023-07-30T06:57:21;15.30;84.10
32506;DHT22;18955;51.224;8.482;2023-07-30T06:59:47;15.40;84.40
32506;DHT22;18955;51.224;8.482;2023-07-30T07:02:13;15.40;84.20
32506;DHT22;18955;51.224;8.482;2023-07-30T07:04:39;15.30;84.00
32506;DHT22;18955;51.224;8.482;2023-07-30T07:07:05;15.40;84.00
32506;DHT22;18955;51.224;8.482;2023-07-30T07:09:32;15.40;84.00
32506;DHT22;18955;51.224;8.482;2023-07-30T07:11:58;15.40;83.90
32506;DHT22;18955;51.224;8.482;2023-07-30T07:14:25;15.40;83.90
32506;DHT22;18955;51.224;8.482;2023-07-30T07:16:53;15.40;83.90
32506;DHT22;18955;51.224;8.482;2023-07-30T07:19:20;15.40;84.00
32506;DHT22;18955;51.224;8.482;2023-07-30T07:21:47;15.40;84.00
32506;DHT22;18955;51.224;8.482;2023-07-30T07:24:13;15.40;83.90
32506;DHT22;18955;51.224;8.482;2023-07-30T07:26:39;15.40;83.80
32506;DHT22;18955;51.224;8.482;2023-07-30T07:29:05;15.40;83.70
32506;DHT22;18955;51.224;8.482;2023-07-30T07:31:31;15.40;83.80
32506;DHT22;18955;51.224;8.482;2023-07-30T07:33:57;15.40;83.90
32506;DHT22;18955;51.224;8.482;2023-07-30T07:36:24;15.40;83.80
32506;DHT22;18955;51.224;8.482;2023-07-30T07:38:50;15.30;83.80
32506;DHT22;18955;51.224;8.482;2023-07-30T07:41:17;15.40;83.80
32506;DHT22;18955;51.224;8.482;2023-07-30T07:43:44;15.40;83.80
32506;DHT22;18955;51.224;8.482;2023-07-30T07:46:10;15.40;83.80
32506;DHT22;18955;51.224;8.482;2023-07-30T07:48:40;15.40;83.70
32506;DHT22;18955;51.224;8.482;2023-07-30T07:51:08;15.40;83.50
32506;DHT22;18955;51.224;8.482;2023-07-30T07:53:34;15.40;83.50
32506;DHT22;18955;51.224;8.482;2023-07-30T07:56:00;15.40;83.60
32506;DHT22;18955;51.224;8.482;2023-07-30T07:58:27;15.40;83.90
32506;DHT22;18955;51.224;8.482;2023-07-30T08:00:55;15.40;83.70
32506;DHT22;18955;51.224;8.482;2023-07-30T08:03:22;15.30;83.60
32506;DHT22;18955;51.224;8.482;2023-07-30T08:05:49;15.30;83.70
32506;DHT22;18955;51.224;8.482;2023-07-30T08:08:15;15.40;83.60
32506;DHT22;18955;51.224;8.482;2023-07-30T08:10:41;15.40;83.50
32506;DHT22;18955;51.224;8.482;2023-07-30T08:13:10;15.40;83.40
32506;DHT22;18955;51.224;8.482;2023-07-30T08:15:36;15.40;83.60
32506;DHT22;18955;51.224;8.482;2023-07-30T08:18:03;15.40;83.60
32506;DHT22;18955;51.224;8.482;2023-07-30T08:20:29;15.30;83.50
32506;DHT22;18955;51.224;8.482;2023-07-30T08:22:55;15.30;83.80
32506;DHT22;18955;51.224;8.482;2023-07-30T08:25:21;15.40;83.70
32506;DHT22;18955;51.224;8.482;2023-07-30T08:27:47;15.40;83.90
32506;DHT22;18955;51.224;8.482;2023-07-30T08:30:14;15.30;83.50
32506;DHT22;18955;51.224;8.482;2023-07-30T08:32:40;15.40;83.80
32506;DHT22;18955;51.224;8.482;2023-07-30T08:35:07;15.40;83.70
32506;DHT22;18955;51.224;8.482;2023-07-30T08:37:34;15.40;83.70
32506;DHT22;18955;51.224;8.482;2023-07-30T08:40:00;15.40;83.80
32506;DHT22;18955;51.224;8.482;2023-07-30T08:42:26;15.40;83.70
32506;DHT22;18955;51.224;8.482;2023-07-30T08:44:52;15.30;84.00
32506;DHT22;18955;51.224;8.482;2023-07-30T08:47:18;15.40;83.90
32506;DHT22;18955;51.224;8.482;2023-07-30T08:49:45;15.40;83.90
32506;DHT22;18955;51.224;8.482;2023-07-30T08:52:11;15.40;83.90
32506;DHT22;18955;51.224;8.482;2023-07-30T08:54:38;15.40;84.30
32506;DHT22;18955;51.224;8.482;2023-07-30T08:57:06;15.40;84.00
32506;DHT22;18955;51.224;8.482;2023-07-30T08:59:37;15.40;83.80
32506;DHT22;18955;51.224;8.482;2023-07-30T09:02:11;15.40;83.90
32506;DHT22;18955;51.224;8.482;2023-07-30T09:04:40;15.40;84.30
32506;DHT22;18955;51.224;8.482;2023-07-30T09:07:11;15.40;83.90
32506;DHT22;18955;51.224;8.482;2023-07-30T09:09:38;15.40;84.20
32506;DHT22;18955;51.224;8.482;2023-07-30T09:12:13;15.40;83.90
32506;DHT22;18955;51.224;8.482;2023-07-30T09:14:41;15.40;84.20
32506;DHT22;18955;51.224;8.482;2023-07-30T09:17:16;15.40;84.40
32506;DHT22;18955;51.224;8.482;2023-07-30T09:19:42;15.40;84.10
32506;DHT22;18955;51.224;8.482;2023-07-30T09:22:08;15.40;84.40
32506;DHT22;18955;51.224;8.482;2023-07-30T09:24:34;15.40;84.50
32506;DHT22;18955;51.224;8.482;2023-07-30T09:27:04;15.40;84.10
32506;DHT22;18955;51.224;8.482;2023-07-30T09:29:30;15.40;84.40
32506;DHT22;18955;51.224;8.482;2023-07-30T09:31:56;15.40;84.40
32506;DHT22;18955;51.224;8.482;2023-07-30T09:34:24;15.40;84.20
32506;DHT22;18955;51.224;8.482;2023-07-30T09:36:53;15.40;84.00
32506;DHT22;18955;51.224;8.482;2023-07-30T09:39:24;15.40;84.60
32506;DHT22;18955;51.224;8.482;2023-07-30T09:41:52;15.40;84.40
32506;DHT22;18955;51.224;8.482;2023-07-30T09:44:19;15.40;84.30
32506;DHT22;18955;51.224;8.482;2023-07-30T09:46:48;15.40;84.20
32506;DHT22;18955;51.224;8.482;2023-07-30T09:49:16;15.40;84.20
32506;DHT22;18955;51.224;8.482;2023-07-30T09:51:42;15.40;84.20
32506;DHT22;18955;51.224;8.482;2023-07-30T09:54:13;15.40;84.20
32506;DHT22;18955;51.224;8.482;2023-07-30T09:56:41;15.40;84.10
32506;DHT22;18955;51.224;8.482;2023-07-30T09:59:09;15.40;84.10
32506;DHT22;18955;51.224;8.482;2023-07-30T10:01:47;15.40;84.00
32506;DHT22;18955;51.224;8.482;2023-07-30T10:04:20;15.40;84.30
32506;DHT22;18955;51.224;8.482;2023-07-30T10:07:01;15.40;84.00
32506;DHT22;18955;51.224;8.482;2023-07-30T10:09:30;15.40;84.00
32506;DHT22;18955;51.224;8.482;2023-07-30T10:12:00;15.40;84.10
32506;DHT22;18955;51.224;8.482;2023-07-30T10:14:28;15.40;84.10
32506;DHT22;18955;51.224;8.482;2023-07-30T10:16:58;15.40;84.00
32506;DHT22;18955;51.224;8.482;2023-07-30T10:19:26;15.40;84.40
32506;DHT22;18955;51.224;8.482;2023-07-30T10:27:35;15.30;84.00
32506;DHT22;18955;51.224;8.482;2023-07-30T10:30:19;15.30;84.10
32506;DHT22;18955;51.224;8.482;2023-07-30T10:38:38;15.40;83.70
32506;DHT22;18955;51.224;8.482;2023-07-30T10:41:08;15.40;83.90
32506;DHT22;18955;51.224;8.482;2023-07-30T10:43:55;15.40;83.90
32506;DHT22;18955;51.224;8.482;2023-07-30T10:46:21;15.40;84.10
32506;DHT22;18955;51.224;8.482;2023-07-30T10:48:48;15.30;84.20
32506;DHT22;18955;51.224;8.482;2023-07-30T10:51:16;15.40;84.30
32506;DHT22;18955;51.224;8.482;2023-07-30T10:53:46;15.30;84.20
32506;DHT22;18955;51.224;8.482;2023-07-30T10:56:15;15.40;84.00
32506;DHT22;18955;51.224;8.482;2023-07-30T10:58:42;15.40;84.30
32506;DHT22;18955;51.224;8.482;2023-07-30T11:01:09;15.40;84.20
32506;DHT22;18955;51.224;8.482;2023-07-30T11:03:36;15.40;84.40
32506;DHT22;18955;51.224;8.482;2023-07-30T11:06:03;15.40;84.40
32506;DHT22;18955;51.224;8.482;2023-07-30T11:11:04;15.40;84.50
32506;DHT22;18955;51.224;8.482;2023-07-30T11:13:44;15.40;84.30
32506;DHT22;18955;51.224;8.482;2023-07-30T11:16:13;15.40;84.20
32506;DHT22;18955;51.224;8.482;2023-07-30T11:18:40;15.40;84.20
32506;DHT22;18955;51.224;8.482;2023-07-30T11:21:13;15.40;84.20
32506;DHT22;18955;51.224;8.482;2023-07-30T11:23:41;15.40;84.30
32506;DHT22;18955;51.224;8.482;2023-07-30T11:26:13;15.40;84.50
32506;DHT22;18955;51.224;8.482;2023-07-30T11:28:40;15.30;84.40
32506;DHT22;18955;51.224;8.482;2023-07-30T11:31:10;15.40;84.70
32506;DHT22;18955;51.224;8.482;2023-07-30T11:33:43;15.40;84.70
32506;DHT22;18955;51.224;8.482;2023-07-30T11:36:12;15.40;84.50
32506;DHT22;18955;51.224;8.482;2023-07-30T11:38:39;15.40;84.30
32506;DHT22;18955;51.224;8.482;2023-07-30T11:41:06;15.40;84.20
32506;DHT22;18955;51.224;8.482;2023-07-30T11:43:45;15.40;84.40
32506;DHT22;18955;51.224;8.482;2023-07-30T11:46:15;15.40;84.30
32506;DHT22;18955;51.224;8.482;2023-07-30T11:48:44;15.40;84.60
32506;DHT22;18955;51.224;8.482;2023-07-30T11:53:55;15.40;84.40
32506;DHT22;18955;51.224;8.482;2023-07-30T11:56:23;15.50;84.60
32506;DHT22;18955;51.224;8.482;2023-07-30T11:58:54;15.50;84.60
32506;DHT22;18955;51.224;8.482;2023-07-30T12:01:20;15.50;84.80
32506;DHT22;18955;51.224;8.482;2023-07-30T12:03:48;15.50;84.90
32506;DHT22;18955;51.224;8.482;2023-07-30T12:06:15;15.50;85.00
32506;DHT22;18955;51.224;8.482;2023-07-30T12:08:41;15.50;85.10
32506;DHT22;18955;51.224;8.482;2023-07-30T12:11:09;15.50;84.90
32506;DHT22;18955;51.224;8.482;2023-07-30T12:13:45;15.50;84.90
32506;DHT22;18955;51.224;8.482;2023-07-30T12:16:12;15.50;84.80
32506;DHT22;18955;51.224;8.482;2023-07-30T12:18:39;15.50;84.90
32506;DHT22;18955;51.224;8.482;2023-07-30T12:21:06;15.50;84.60
32506;DHT22;18955;51.224;8.482;2023-07-30T12:23:37;15.50;84.70
32506;DHT22;18955;51.224;8.482;2023-07-30T12:26:04;15.50;84.70
32506;DHT22;18955;51.224;8.482;2023-07-30T12:28:33;15.50;84.30
32506;DHT22;18955;51.224;8.482;2023-07-30T12:31:00;15.60;84.50
32506;DHT22;18955;51.224;8.482;2023-07-30T12:33:27;15.60;84.40
32506;DHT22;18955;51.224;8.482;2023-07-30T12:35:53;15.50;84.20
32506;DHT22;18955;51.224;8.482;2023-07-30T12:38:19;15.60;84.30
32506;DHT22;18955;51.224;8.482;2023-07-30T12:40:46;15.60;84.40
32506;DHT22;18955;51.224;8.482;2023-07-30T12:43:12;15.60;84.20
32506;DHT22;18955;51.224;8.482;2023-07-30T12:45:39;15.60;83.90
32506;DHT22;18955;51.224;8.482;2023-07-30T12:48:05;15.60;83.70
32506;DHT22;18955;51.224;8.482;2023-07-30T12:50:33;15.60;83.80
32506;DHT22;18955;51.224;8.482;2023-07-30T12:52:59;15.60;83.70
32506;DHT22;18955;51.224;8.482;2023-07-30T12:55:26;15.60;83.40
32506;DHT22;18955;51.224;8.482;2023-07-30T12:57:52;15.60;83.60
32506;DHT22;18955;51.224;8.482;2023-07-30T13:00:18;15.60;83.40
32506;DHT22;18955;51.224;8.482;2023-07-30T13:02:44;15.60;83.40
32506;DHT22;18955;51.224;8.482;2023-07-30T13:05:10;15.70;83.30
32506;DHT22;18955;51.224;8.482;2023-07-30T13:07:37;15.70;83.80
32506;DHT22;18955;51.224;8.482;2023-07-30T13:12:30;15.70;83.10
32506;DHT22;18955;51.224;8.482;2023-07-30T13:14:56;15.70;83.00
32506;DHT22;18955;51.224;8.482;2023-07-30T13:17:22;15.70;82.80
32506;DHT22;18955;51.224;8.482;2023-07-30T13:19:48;15.70;82.70
32506;DHT22;18955;51.224;8.482;2023-07-30T13:22:14;15.70;82.70
32506;DHT22;18955;51.224;8.482;2023-07-30T13:24:41;15.80;82.70
32506;DHT22;18955;51.224;8.482;2023-07-30T13:27:07;15.70;82.20
32506;DHT22;18955;51.224;8.482;2023-07-30T13:29:33;15.80;82.00
32506;DHT22;18955;51.224;8.482;2023-07-30T13:32:00;15.70;82.50
32506;DHT22;18955;51.224;8.482;2023-07-30T13:34:26;15.70;82.10
32506;DHT22;18955;51.224;8.482;2023-07-30T13:36:52;15.80;82.20
32506;DHT22;18955;51.224;8.482;2023-07-30T13:39:19;15.80;81.70
32506;DHT22;18955;51.224;8.482;2023-07-30T13:41:45;15.80;81.80
32506;DHT22;18955;51.224;8.482;2023-07-30T13:44:11;15.80;81.50
32506;DHT22;18955;51.224;8.482;2023-07-30T13:46:38;15.80;81.70
32506;DHT22;18955;51.224;8.482;2023-07-30T13:49:06;15.80;81.80
32506;DHT22;18955;51.224;8.482;2023-07-30T13:51:32;15.90;81.80
32506;DHT22;18955;51.224;8.482;2023-07-30T13:53:59;15.80;81.90
32506;DHT22;18955;51.224;8.482;2023-07-30T13:56:26;15.80;81.70
32506;DHT22;18955;51.224;8.482;2023-07-30T13:58:52;15.80;81.80
32506;DHT22;18955;51.224;8.482;2023-07-30T14:01:18;15.90;81.90
32506;DHT22;18955;51.224;8.482;2023-07-30T14:03:44;15.90;81.60
32506;DHT22;18955;51.224;8.482;2023-07-30T14:06:11;15.90;81.90
32506;DHT22;18955;51.224;8.482;2023-07-30T14:08:37;15.90;81.80
32506;DHT22;18955;51.224;8.482;2023-07-30T14:11:04;15.90;81.80
32506;DHT22;18955;51.224;8.482;2023-07-30T14:13:30;15.80;81.90
32506;DHT22;18955;51.224;8.482;2023-07-30T14:15:57;15.80;82.40
32506;DHT22;18955;51.224;8.482;2023-07-30T14:18:24;15.90;82.60
32506;DHT22;18955;51.224;8.482;2023-07-30T14:20:51;15.90;82.80
32506;DHT22;18955;51.224;8.482;2023-07-30T14:23:18;15.90;82.30
32506;DHT22;18955;51.224;8.482;2023-07-30T14:25:45;15.90;82.30
32506;DHT22;18955;51.224;8.482;2023-07-30T14:28:11;16.00;82.40
32506;DHT22;18955;51.224;8.482;2023-07-30T14:30:37;16.00;82.20
32506;DHT22;18955;51.224;8.482;2023-07-30T14:33:10;16.00;82.30
32506;DHT22;18955;51.224;8.482;2023-07-30T14:35:37;16.10;82.30
32506;DHT22;18955;51.224;8.482;2023-07-30T14:38:06;16.10;82.20
32506;DHT22;18955;51.224;8.482;2023-07-30T14:40:33;16.10;81.80
32506;DHT22;18955;51.224;8.482;2023-07-30T14:42:59;16.10;81.80
32506;DHT22;18955;51.224;8.482;2023-07-30T14:45:25;16.10;81.80
32506;DHT22;18955;51.224;8.482;2023-07-30T14:47:51;16.20;81.70
32506;DHT22;18955;51.224;8.482;2023-07-30T14:50:18;16.20;81.80
32506;DHT22;18955;51.224;8.482;2023-07-30T14:52:45;16.20;81.70
32506;DHT22;18955;51.224;8.482;2023-07-30T14:55:11;16.20;81.40
32506;DHT22;18955;51.224;8.482;2023-07-30T14:57:37;16.30;81.50
32506;DHT22;18955;51.224;8.482;2023-07-30T15:00:04;16.30;81.00
32506;DHT22;18955;51.224;8.482;2023-07-30T15:02:30;16.40;81.50
32506;DHT22;18955;51.224;8.482;2023-07-30T15:04:57;16.40;81.10
32506;DHT22;18955;51.224;8.482;2023-07-30T15:07:23;16.40;81.00
32506;DHT22;18955;51.224;8.482;2023-07-30T15:09:54;16.50;80.70
32506;DHT22;18955;51.224;8.482;2023-07-30T15:12:20;16.50;80.80
32506;DHT22;18955;51.224;8.482;2023-07-30T15:14:47;16.50;80.80
32506;DHT22;18955;51.224;8.482;2023-07-30T15:17:13;16.50;80.70
32506;DHT22;18955;51.224;8.482;2023-07-30T15:19:39;16.50;81.00
32506;DHT22;18955;51.224;8.482;2023-07-30T15:22:06;16.60;80.80
32506;DHT22;18955;51.224;8.482;2023-07-30T15:24:32;16.60;80.60
32506;DHT22;18955;51.224;8.482;2023-07-30T15:26:58;16.60;81.40
32506;DHT22;18955;51.224;8.482;2023-07-30T15:29:25;16.50;81.60
32506;DHT22;18955;51.224;8.482;2023-07-30T15:31:51;16.50;81.60
32506;DHT22;18955;51.224;8.482;2023-07-30T15:34:17;16.50;81.90
32506;DHT22;18955;51.224;8.482;2023-07-30T15:36:44;16.50;82.00
32506;DHT22;18955;51.224;8.482;2023-07-30T15:39:10;16.60;81.80
32506;DHT22;18955;51.224;8.482;2023-07-30T15:41:36;16.60;81.80
32506;DHT22;18955;51.224;8.482;2023-07-30T15:44:03;16.60;82.00
32506;DHT22;18955;51.224;8.482;2023-07-30T15:46:29;16.60;81.90
32506;DHT22;18955;51.224;8.482;2023-07-30T15:48:55;16.60;81.80